createdAt,value
2023-04-05T00:00:35.253Z,3.80
2023-04-05T00:03:03.315Z,3.70
2023-04-05T00:05:31.555Z,3.70
2023-04-05T00:08:00.748Z,3.70
2023-04-05T00:10:29.019Z,3.60
2023-04-05T00:12:58.423Z,3.60
2023-04-05T00:15:26.610Z,3.60
2023-04-05T00:17:55.187Z,3.60
2023-04-05T00:20:23.454Z,3.60
2023-04-05T00:22:51.583Z,3.60
2023-04-05T00:25:20.953Z,3.60
2023-04-05T00:27:50.274Z,3.50
2023-04-05T00:30:21.649Z,3.50
2023-04-05T00:32:50.583Z,3.40
2023-04-05T00:35:18.852Z,3.40
2023-04-05T00:37:54.788Z,3.40
2023-04-05T00:40:22.855Z,3.30
2023-04-05T00:42:56.321Z,3.30
2023-04-05T00:45:26.016Z,3.30
2023-04-05T00:47:54.050Z,3.20
2023-04-05T00:50:22.263Z,3.20
2023-04-05T00:52:51.302Z,3.20
2023-04-05T00:55:19.990Z,3.10
2023-04-05T00:57:50.057Z,3.10
2023-04-05T01:00:23.533Z,3.10
2023-04-05T01:02:55.198Z,3.10
2023-04-05T01:05:32.101Z,3.10
2023-04-05T01:08:01.826Z,3.00
2023-04-05T01:10:32.316Z,3.00
2023-04-05T01:13:00.661Z,3.00
2023-04-05T01:15:28.753Z,3.00
2023-04-05T01:18:02.066Z,2.90
2023-04-05T01:20:34.148Z,2.90
2023-04-05T01:23:17.007Z,2.90
2023-04-05T01:26:00.601Z,2.90
2023-04-05T01:28:37.082Z,2.80
2023-04-05T01:31:08.838Z,2.80
2023-04-05T01:33:42.710Z,2.80
2023-04-05T01:36:15.417Z,2.70
2023-04-05T01:38:46.292Z,2.70
2023-04-05T01:41:14.628Z,2.70
2023-04-05T01:43:42.595Z,2.60
2023-04-05T01:46:11.935Z,2.60
2023-04-05T01:48:39.969Z,2.60
2023-04-05T01:51:08.067Z,2.60
2023-04-05T01:53:37.297Z,2.50
2023-04-05T01:56:05.716Z,2.50
2023-04-05T01:58:33.818Z,2.50
2023-04-05T02:01:01.843Z,2.40
2023-04-05T02:03:34.735Z,2.40
2023-04-05T02:06:02.765Z,2.40
2023-04-05T02:08:30.754Z,2.40
2023-04-05T02:10:58.759Z,2.30
2023-04-05T02:13:26.867Z,2.30
2023-04-05T02:15:57.788Z,2.20
2023-04-05T02:18:30.088Z,2.20
2023-04-05T02:21:04.280Z,2.20
2023-04-05T02:23:32.577Z,2.10
2023-04-05T02:26:00.736Z,2.10
2023-04-05T02:28:30.235Z,2.10
2023-04-05T02:30:58.180Z,2.10
2023-04-05T02:33:27.645Z,2.10
2023-04-05T02:35:57.506Z,2.00
2023-04-05T02:38:27.432Z,2.00
2023-04-05T02:40:55.426Z,2.00
2023-04-05T02:43:23.371Z,2.00
2023-04-05T02:45:52.061Z,2.00
2023-04-05T02:48:20.044Z,2.00
2023-04-05T02:50:49.324Z,1.90
2023-04-05T02:53:19.561Z,1.90
2023-04-05T02:55:54.319Z,1.90
2023-04-05T02:58:22.332Z,1.90
2023-04-05T03:00:54.652Z,1.90
2023-04-05T03:03:31.779Z,2.00
2023-04-05T03:06:00.357Z,1.80
2023-04-05T03:08:28.774Z,1.80
2023-04-05T03:10:58.221Z,1.80
2023-04-05T03:13:26.269Z,1.80
2023-04-05T03:15:54.812Z,1.70
2023-04-05T03:18:25.661Z,1.70
2023-04-05T03:20:56.810Z,1.70
2023-04-05T03:23:27.277Z,1.70
2023-04-05T03:25:57.111Z,1.60
2023-04-05T03:28:26.573Z,1.60
2023-04-05T03:30:54.783Z,1.60
2023-04-05T03:33:23.312Z,1.60
2023-04-05T03:35:51.523Z,1.60
2023-04-05T03:38:19.547Z,1.50
2023-04-05T03:40:50.436Z,1.50
2023-04-05T03:43:18.368Z,1.50
2023-04-05T03:45:47.735Z,1.50
2023-04-05T03:48:19.941Z,1.50
2023-04-05T03:50:47.901Z,1.40
2023-04-05T03:53:17.617Z,1.40
2023-04-05T03:55:49.753Z,1.40
2023-04-05T03:58:22.923Z,1.40
2023-04-05T04:00:52.843Z,1.40
2023-04-05T04:03:23.395Z,1.40
2023-04-05T04:05:51.651Z,1.30
2023-04-05T04:08:19.608Z,1.30
2023-04-05T04:10:47.597Z,1.30
2023-04-05T04:13:15.592Z,1.30
2023-04-05T04:15:43.559Z,1.30
2023-04-05T04:18:13.148Z,1.20
2023-04-05T04:20:41.201Z,1.20
2023-04-05T04:23:10.828Z,1.20
2023-04-05T04:25:39.061Z,1.10
2023-04-05T04:28:07.989Z,1.10
2023-04-05T04:30:36.301Z,1.10
2023-04-05T04:33:09.195Z,1.10
2023-04-05T04:35:39.669Z,1.00
2023-04-05T04:38:08.424Z,1.00
2023-04-05T04:40:38.993Z,1.00
2023-04-05T04:43:09.940Z,1.00
2023-04-05T04:45:38.520Z,1.00
2023-04-05T04:48:06.683Z,1.00
2023-04-05T04:50:34.813Z,0.90
2023-04-05T04:53:04.221Z,0.90
2023-04-05T04:55:33.525Z,0.90
2023-04-05T04:58:01.555Z,0.90
2023-04-05T05:00:30.007Z,0.90
2023-04-05T05:02:58.033Z,0.90
2023-04-05T05:05:27.466Z,0.90
2023-04-05T05:07:56.441Z,0.90
2023-04-05T05:10:25.975Z,0.80
2023-04-05T05:12:53.929Z,0.80
2023-04-05T05:15:22.016Z,0.80
2023-04-05T05:17:53.077Z,0.80
2023-04-05T05:20:22.500Z,0.80
2023-04-05T05:22:51.176Z,0.80
2023-04-05T05:25:20.608Z,0.80
2023-04-05T05:27:51.164Z,0.80
2023-04-05T05:30:20.698Z,0.80
2023-04-05T05:32:48.694Z,0.80
2023-04-05T05:35:19.766Z,0.80
2023-04-05T05:37:47.906Z,0.80
2023-04-05T05:40:16.206Z,0.80
2023-04-05T05:42:47.019Z,0.80
2023-04-05T05:45:16.383Z,0.90
2023-04-05T05:47:44.368Z,0.90
2023-04-05T05:50:12.438Z,0.90
2023-04-05T05:52:40.386Z,0.90
2023-04-05T05:55:09.451Z,1.00
2023-04-05T05:57:38.820Z,1.00
2023-04-05T06:00:09.698Z,1.10
2023-04-05T06:02:39.275Z,1.10
2023-04-05T06:05:07.633Z,1.20
2023-04-05T06:07:36.866Z,1.20
2023-04-05T06:10:05.114Z,1.30
2023-04-05T06:12:33.095Z,1.30
2023-04-05T06:15:02.054Z,1.40
2023-04-05T06:17:30.238Z,1.40
2023-04-05T06:19:59.556Z,1.50
2023-04-05T06:22:29.941Z,1.50
2023-04-05T06:24:57.867Z,1.60
2023-04-05T06:27:25.931Z,1.60
2023-04-05T06:29:56.614Z,1.70
2023-04-05T06:32:24.865Z,1.70
2023-04-05T06:34:53.600Z,1.80
2023-04-05T06:37:22.896Z,1.80
2023-04-05T06:39:50.977Z,1.90
2023-04-05T06:42:18.958Z,1.90
2023-04-05T06:44:46.928Z,2.00
2023-04-05T06:47:15.263Z,2.00
2023-04-05T06:49:43.263Z,2.10
2023-04-05T06:52:11.520Z,2.20
2023-04-05T06:54:42.073Z,2.20
2023-04-05T06:57:10.056Z,2.30
2023-04-05T06:59:39.179Z,2.30
2023-04-05T07:02:07.538Z,2.40
2023-04-05T07:04:41.330Z,2.40
2023-04-05T07:07:09.351Z,2.50
2023-04-05T07:09:39.676Z,2.50
2023-04-05T07:12:11.927Z,2.60
2023-04-05T07:14:39.936Z,2.60
2023-04-05T07:17:08.249Z,2.70
2023-04-05T07:19:36.210Z,2.80
2023-04-05T07:22:11.212Z,2.80
2023-04-05T07:24:42.320Z,2.80
2023-04-05T07:27:10.344Z,2.90
2023-04-05T07:29:43.114Z,3.00
2023-04-05T07:32:12.671Z,3.00
2023-04-05T07:34:41.539Z,3.10
2023-04-05T07:37:09.675Z,3.20
2023-04-05T07:39:37.641Z,3.20
2023-04-05T07:42:06.642Z,3.30
2023-04-05T07:44:34.554Z,3.30
2023-04-05T07:47:04.232Z,3.40
2023-04-05T07:49:32.296Z,3.50
2023-04-05T07:52:00.506Z,3.50
2023-04-05T07:54:28.431Z,3.60
2023-04-05T07:56:58.120Z,3.70
2023-04-05T07:59:26.132Z,3.70
2023-04-05T08:01:57.085Z,3.80
2023-04-05T08:04:31.266Z,3.90
2023-04-05T08:06:59.180Z,3.90
2023-04-05T08:09:27.154Z,4.00
2023-04-05T08:11:57.256Z,4.10
2023-04-05T08:14:25.434Z,4.20
2023-04-05T08:16:53.377Z,4.40
2023-04-05T08:19:21.440Z,4.50
2023-04-05T08:21:51.302Z,4.50
2023-04-05T08:24:19.429Z,4.60
2023-04-05T08:26:47.404Z,4.60
2023-04-05T08:29:15.377Z,4.70
2023-04-05T08:31:43.448Z,4.80
2023-04-05T08:34:11.481Z,4.80
2023-04-05T08:36:39.441Z,4.90
2023-04-05T08:39:08.822Z,5.00
2023-04-05T08:41:37.561Z,5.10
2023-04-05T08:44:05.756Z,5.10
2023-04-05T08:46:34.539Z,5.20
2023-04-05T08:49:06.262Z,5.20
2023-04-05T08:51:34.403Z,5.30
2023-04-05T08:54:04.188Z,5.40
2023-04-05T08:56:34.530Z,5.40
2023-04-05T08:59:04.042Z,5.50
2023-04-05T09:01:33.928Z,5.50
2023-04-05T09:04:02.847Z,5.50
2023-04-05T09:06:30.911Z,5.60
2023-04-05T09:08:59.189Z,5.70
2023-04-05T09:11:30.227Z,5.70
2023-04-05T09:13:59.650Z,5.80
2023-04-05T09:16:28.281Z,5.90
2023-04-05T09:18:56.243Z,5.90
2023-04-05T09:21:24.432Z,6.00
2023-04-05T09:23:58.906Z,6.00
2023-04-05T09:26:31.933Z,6.10
2023-04-05T09:29:01.775Z,6.10
2023-04-05T09:31:30.740Z,6.20
2023-04-05T09:33:59.315Z,6.20
2023-04-05T09:36:28.551Z,6.30
2023-04-05T09:39:07.097Z,6.30
2023-04-05T09:41:35.199Z,6.40
2023-04-05T09:44:10.752Z,6.40
2023-04-05T09:46:38.888Z,6.50
2023-04-05T09:49:09.537Z,6.50
2023-04-05T09:51:39.338Z,6.60
2023-04-05T09:54:07.967Z,6.60
2023-04-05T09:56:38.680Z,6.70
2023-04-05T09:59:10.777Z,6.70
2023-04-05T10:01:41.450Z,6.80
2023-04-05T10:04:09.829Z,6.90
2023-04-05T10:06:40.726Z,7.00
2023-04-05T10:09:10.031Z,7.00
2023-04-05T10:11:38.381Z,7.10
2023-04-05T10:14:07.013Z,7.20
2023-04-05T10:16:38.384Z,7.20
2023-04-05T10:19:07.394Z,7.30
2023-04-05T10:21:37.311Z,7.30
2023-04-05T10:24:19.497Z,7.40
2023-04-05T10:26:56.140Z,7.50
2023-04-05T10:29:26.589Z,7.50
2023-04-05T10:32:01.060Z,7.70
2023-04-05T10:34:32.354Z,7.70
2023-04-05T10:37:01.683Z,7.80
2023-04-05T10:39:30.489Z,7.80
2023-04-05T10:42:01.321Z,7.80
2023-04-05T10:44:33.224Z,7.90
2023-04-05T10:47:06.265Z,8.00
2023-04-05T10:49:37.494Z,8.10
2023-04-05T10:52:06.215Z,8.10
2023-04-05T10:54:41.801Z,8.20
2023-04-05T10:57:11.026Z,8.20
2023-04-05T10:59:42.727Z,8.20
2023-04-05T11:02:12.596Z,8.30
2023-04-05T11:04:42.174Z,8.30
2023-04-05T11:07:18.600Z,8.50
2023-04-05T11:09:53.799Z,8.50
2023-04-05T11:12:41.978Z,8.50
2023-04-05T11:15:28.672Z,8.60
2023-04-05T11:18:04.498Z,8.60
2023-04-05T11:20:44.267Z,8.70
2023-04-05T11:23:12.992Z,8.80
2023-04-05T11:25:41.495Z,8.80
2023-04-05T11:28:22.884Z,8.90
2023-04-05T11:30:52.095Z,9.00
2023-04-05T11:33:58.605Z,9.00
2023-04-05T11:36:33.924Z,9.10
2023-04-05T11:39:29.092Z,9.20
2023-04-05T11:42:01.668Z,9.30
2023-04-05T11:44:31.707Z,8.20
2023-04-05T11:46:59.679Z,9.40
2023-04-05T11:49:34.731Z,9.40
2023-04-05T11:52:11.166Z,9.60
2023-04-05T11:54:39.813Z,9.70
2023-04-05T11:57:12.670Z,9.80
2023-04-05T11:59:40.711Z,9.90
2023-04-05T12:02:10.616Z,10.00
2023-04-05T12:04:40.506Z,10.10
2023-04-05T12:07:18.563Z,10.20
2023-04-05T12:10:15.964Z,10.30
2023-04-05T12:12:45.740Z,10.40
2023-04-05T12:15:18.590Z,10.70
2023-04-05T12:17:47.617Z,10.70
2023-04-05T12:20:17.488Z,10.80
2023-04-05T12:22:46.252Z,10.80
2023-04-05T12:25:14.379Z,10.90
2023-04-05T12:27:44.570Z,11.00
2023-04-05T12:30:16.678Z,11.20
2023-04-05T12:32:49.753Z,11.40
2023-04-05T12:35:27.090Z,11.50
2023-04-05T12:37:58.563Z,11.70
2023-04-05T12:40:30.403Z,11.80
2023-04-05T12:43:04.250Z,11.90
2023-04-05T12:45:40.077Z,12.00
2023-04-05T12:48:13.170Z,12.20
2023-04-05T12:50:46.705Z,12.40
2023-04-05T12:53:17.796Z,12.60
2023-04-05T12:55:49.260Z,12.70
2023-04-05T12:58:17.624Z,12.90
2023-04-05T13:00:48.162Z,13.00
2023-04-05T13:03:17.036Z,13.30
2023-04-05T13:05:46.753Z,13.40
2023-04-05T13:08:14.909Z,13.50
2023-04-05T13:10:42.886Z,13.50
2023-04-05T13:13:10.898Z,13.80
2023-04-05T13:15:39.019Z,14.10
2023-04-05T13:18:07.149Z,14.30
2023-04-05T13:20:35.325Z,14.50
2023-04-05T13:23:10.712Z,14.60
2023-04-05T13:25:38.825Z,14.60
2023-04-05T13:28:07.335Z,14.80
2023-04-05T13:30:35.418Z,14.90
2023-04-05T13:33:06.670Z,15.50
2023-04-05T13:35:34.727Z,15.90
2023-04-05T13:38:05.665Z,16.30
2023-04-05T13:40:33.673Z,16.70
2023-04-05T13:43:01.752Z,17.20
2023-04-05T13:45:29.773Z,17.80
2023-04-05T13:47:57.746Z,18.10
2023-04-05T13:50:26.023Z,18.30
2023-04-05T13:52:54.051Z,18.30
2023-04-05T13:55:27.510Z,18.60
2023-04-05T13:57:55.429Z,18.90
2023-04-05T14:00:23.498Z,19.00
2023-04-05T14:02:52.609Z,19.30
2023-04-05T14:05:23.728Z,19.60
2023-04-05T14:07:51.800Z,19.90
2023-04-05T14:10:22.981Z,20.10
2023-04-05T14:12:52.551Z,20.50
2023-04-05T14:15:20.728Z,20.90
2023-04-05T14:17:48.903Z,21.10
2023-04-05T14:20:18.278Z,21.00
2023-04-05T14:22:46.396Z,20.80
2023-04-05T14:25:14.429Z,21.00
2023-04-05T14:27:42.689Z,21.60
2023-04-05T14:30:13.110Z,22.40
2023-04-05T14:32:41.246Z,23.10
2023-04-05T14:35:10.229Z,23.80
2023-04-05T14:37:40.288Z,24.10
2023-04-05T14:40:08.828Z,24.50
2023-04-05T14:42:47.571Z,24.60
2023-04-05T14:45:17.814Z,24.50
2023-04-05T14:47:45.950Z,24.50
2023-04-05T14:50:13.998Z,24.50
2023-04-05T14:52:42.065Z,24.40
2023-04-05T14:55:12.407Z,24.20
2023-04-05T14:57:44.507Z,24.20
2023-04-05T15:00:15.898Z,23.90
2023-04-05T15:02:46.083Z,24.10
2023-04-05T15:05:14.236Z,24.20
2023-04-05T15:07:42.304Z,24.10
2023-04-05T15:10:12.805Z,24.10
2023-04-05T15:12:40.854Z,24.20
2023-04-05T15:15:09.256Z,24.50
2023-04-05T15:17:38.452Z,24.90
2023-04-05T15:20:08.486Z,25.10
2023-04-05T15:22:40.786Z,25.40
2023-04-05T15:25:09.510Z,25.80
2023-04-05T15:27:37.593Z,25.90
2023-04-05T15:30:06.213Z,25.70
2023-04-05T15:32:34.308Z,25.80
2023-04-05T15:35:02.605Z,25.50
2023-04-05T15:37:32.049Z,25.70
2023-04-05T15:40:03.197Z,26.00
2023-04-05T15:42:31.836Z,26.00
2023-04-05T15:44:59.885Z,25.50
2023-04-05T15:47:29.951Z,25.20
2023-04-05T15:50:00.617Z,24.80
2023-04-05T15:52:28.754Z,24.60
2023-04-05T15:54:58.214Z,24.00
2023-04-05T15:57:26.310Z,23.70
2023-04-05T15:59:54.514Z,23.10
2023-04-05T16:02:22.735Z,22.80
2023-04-05T16:04:50.849Z,22.60
2023-04-05T16:07:21.672Z,22.20
2023-04-05T16:09:49.694Z,22.00
2023-04-05T16:12:19.145Z,21.80
2023-04-05T16:14:48.420Z,21.70
2023-04-05T16:17:16.515Z,21.30
2023-04-05T16:19:44.629Z,21.00
2023-04-05T16:22:12.742Z,20.80
2023-04-05T16:24:40.927Z,20.70
2023-04-05T16:27:09.013Z,20.50
2023-04-05T16:29:38.422Z,20.20
2023-04-05T16:32:06.551Z,20.00
2023-04-05T16:34:34.739Z,19.60
2023-04-05T16:37:02.813Z,19.40
2023-04-05T16:39:30.910Z,19.20
2023-04-05T16:41:59.030Z,18.90
2023-04-05T16:44:27.114Z,18.80
2023-04-05T16:46:56.566Z,18.60
2023-04-05T16:49:24.673Z,18.30
2023-04-05T16:51:52.719Z,18.10
2023-04-05T16:54:23.704Z,17.80
2023-04-05T16:56:51.752Z,17.60
2023-04-05T16:59:19.926Z,17.30
2023-04-05T17:01:48.226Z,17.50
2023-04-05T17:04:17.795Z,16.90
2023-04-05T17:06:48.227Z,16.70
2023-04-05T17:09:16.551Z,16.50
2023-04-05T17:11:44.656Z,16.10
2023-04-05T17:14:12.812Z,16.00
2023-04-05T17:16:42.556Z,15.60
2023-04-05T17:19:10.643Z,15.40
2023-04-05T17:21:40.177Z,15.20
2023-04-05T17:24:08.632Z,15.00
2023-04-05T17:26:36.787Z,14.70
2023-04-05T17:29:06.679Z,14.60
2023-04-05T17:31:34.874Z,14.40
2023-04-05T17:34:03.150Z,14.20
2023-04-05T17:36:31.505Z,14.10
2023-04-05T17:39:01.003Z,13.90
2023-04-05T17:41:29.138Z,13.70
2023-04-05T17:43:57.349Z,13.60
2023-04-05T17:46:37.873Z,13.40
2023-04-05T17:49:09.622Z,13.20
2023-04-05T17:51:37.972Z,13.00
2023-04-05T17:54:07.467Z,12.90
2023-04-05T17:56:36.104Z,12.80
2023-04-05T17:59:04.417Z,12.70
2023-04-05T18:01:32.827Z,12.60
2023-04-05T18:04:01.141Z,12.40
2023-04-05T18:06:31.521Z,12.30
2023-04-05T18:08:59.641Z,12.20
2023-04-05T18:11:29.158Z,12.00
2023-04-05T18:13:57.206Z,11.90
2023-04-05T18:16:25.334Z,11.80
2023-04-05T18:18:53.484Z,11.60
2023-04-05T18:21:21.539Z,11.60
2023-04-05T18:23:49.654Z,11.50
2023-04-05T18:26:18.494Z,11.40
2023-04-05T18:28:49.082Z,11.30
2023-04-05T18:31:17.133Z,11.20
2023-04-05T18:33:45.315Z,11.20
2023-04-05T18:36:13.485Z,11.10
2023-04-05T18:38:41.587Z,11.00
2023-04-05T18:41:10.886Z,10.90
2023-04-05T18:43:39.149Z,10.80
2023-04-05T18:46:08.692Z,10.80
2023-04-05T18:48:38.923Z,10.70
2023-04-05T18:51:06.987Z,10.60
2023-04-05T18:53:35.100Z,10.50
2023-04-05T18:56:03.104Z,10.40
2023-04-05T18:58:34.018Z,10.40
2023-04-05T19:01:04.813Z,10.30
2023-04-05T19:03:34.412Z,10.20
2023-04-05T19:06:04.568Z,10.10
2023-04-05T19:08:32.642Z,10.10
2023-04-05T19:11:00.812Z,10.40
2023-04-05T19:13:29.105Z,10.00
2023-04-05T19:15:57.177Z,9.90
2023-04-05T19:18:27.966Z,9.90
2023-04-05T19:20:57.925Z,9.80
2023-04-05T19:23:26.690Z,9.70
2023-04-05T19:25:55.468Z,9.70
2023-04-05T19:28:23.642Z,9.60
2023-04-05T19:30:51.750Z,9.50
2023-04-05T19:33:21.598Z,9.50
2023-04-05T19:35:50.234Z,9.50
2023-04-05T19:38:23.571Z,9.40
2023-04-05T19:40:51.763Z,9.30
2023-04-05T19:43:19.798Z,9.30
2023-04-05T19:45:50.830Z,9.20
2023-04-05T19:48:38.643Z,9.20
2023-04-05T19:51:07.862Z,9.10
2023-04-05T19:53:42.533Z,9.00
2023-04-05T19:56:11.711Z,8.90
2023-04-05T19:58:39.848Z,8.90
2023-04-05T20:01:08.374Z,8.80
2023-04-05T20:03:37.075Z,8.80
2023-04-05T20:06:08.299Z,8.70
2023-04-05T20:08:42.037Z,8.60
2023-04-05T20:11:12.297Z,8.60
2023-04-05T20:13:42.427Z,8.60
2023-04-05T20:16:14.678Z,8.50
2023-04-05T20:18:45.783Z,8.50
2023-04-05T20:21:14.296Z,8.50
2023-04-05T20:23:44.766Z,8.40
2023-04-05T20:26:13.601Z,8.30
2023-04-05T20:28:43.080Z,8.30
2023-04-05T20:31:11.824Z,8.30
2023-04-05T20:33:45.321Z,8.30
2023-04-05T20:36:13.934Z,8.20
2023-04-05T20:38:43.907Z,8.20
2023-04-05T20:41:12.577Z,8.20
2023-04-05T20:43:42.738Z,8.10
2023-04-05T20:46:11.484Z,8.10
2023-04-05T20:48:39.893Z,8.10
2023-04-05T20:51:08.371Z,8.00
2023-04-05T20:53:37.388Z,8.00
2023-04-05T20:56:07.952Z,7.90
2023-04-05T20:58:36.472Z,7.90
2023-04-05T21:01:04.684Z,7.90
2023-04-05T21:03:33.306Z,7.90
2023-04-05T21:06:02.218Z,7.80
2023-04-05T21:08:31.196Z,7.80
2023-04-05T21:10:59.534Z,7.80
2023-04-05T21:13:28.986Z,7.70
2023-04-05T21:15:57.400Z,7.70
2023-04-05T21:18:31.120Z,7.60
2023-04-05T21:21:00.319Z,7.60
2023-04-05T21:23:28.814Z,7.50
2023-04-05T21:25:57.462Z,7.50
2023-04-05T21:28:26.277Z,7.50
2023-04-05T21:30:55.725Z,7.40
2023-04-05T21:33:23.826Z,9.30
2023-04-05T21:35:51.929Z,7.30
2023-04-05T21:38:21.896Z,7.30
2023-04-05T21:40:50.961Z,7.30
2023-04-05T21:43:19.041Z,7.30
2023-04-05T21:45:47.046Z,7.20
2023-04-05T21:48:16.489Z,7.20
2023-04-05T21:50:44.506Z,7.20
2023-04-05T21:53:12.520Z,7.10
2023-04-05T21:55:40.779Z,7.10
2023-04-05T21:58:08.812Z,7.10
2023-04-05T22:00:37.048Z,7.10
2023-04-05T22:03:05.145Z,7.00
2023-04-05T22:05:37.927Z,7.00
2023-04-05T22:08:07.827Z,7.00
2023-04-05T22:10:37.004Z,7.00
2023-04-05T22:13:05.106Z,6.90
2023-04-05T22:15:36.086Z,6.90
2023-04-05T22:18:05.599Z,6.90
2023-04-05T22:20:35.256Z,6.80
2023-04-05T22:23:03.306Z,6.80
2023-04-05T22:25:31.556Z,6.70
2023-04-05T22:28:00.689Z,6.70
2023-04-05T22:30:37.206Z,6.70
2023-04-05T22:33:12.677Z,6.60
2023-04-05T22:35:48.694Z,6.60
2023-04-05T22:38:16.751Z,6.60
2023-04-05T22:40:46.333Z,6.60
2023-04-05T22:43:14.433Z,6.50
2023-04-05T22:45:43.002Z,6.50
2023-04-05T22:48:11.069Z,6.50
2023-04-05T22:50:39.198Z,6.40
2023-04-05T22:53:08.622Z,6.40
2023-04-05T22:55:39.678Z,6.40
2023-04-05T22:58:07.790Z,6.30
2023-04-05T23:00:36.095Z,5.80
2023-04-05T23:03:12.035Z,6.30
2023-04-05T23:05:40.244Z,6.30
2023-04-05T23:08:09.654Z,6.20
2023-04-05T23:10:37.769Z,6.20
2023-04-05T23:13:05.822Z,6.20
2023-04-05T23:15:37.286Z,6.20
2023-04-05T23:18:05.473Z,6.10
2023-04-05T23:20:33.616Z,6.10
2023-04-05T23:23:01.800Z,6.10
2023-04-05T23:25:31.210Z,6.00
2023-04-05T23:28:01.159Z,6.00
2023-04-05T23:30:29.253Z,6.00
2023-04-05T23:32:57.395Z,5.90
2023-04-05T23:35:27.103Z,5.90
2023-04-05T23:37:55.233Z,5.80
2023-04-05T23:40:23.284Z,5.80
2023-04-05T23:42:52.844Z,5.70
2023-04-05T23:45:21.040Z,5.70
2023-04-05T23:47:49.198Z,5.70
2023-04-05T23:50:17.326Z,5.70
2023-04-05T23:52:45.627Z,5.70
2023-04-05T23:55:13.662Z,5.60
2023-04-05T23:57:41.713Z,5.60
